Flight Track Log - Related Links

Times and Time Zones

All times are in EDT time to prevent confusion due to time zone crossing. See the N800GS flight status page for this flight to view local times or setup timezone preferences in your user account.

Time Position Orientation Groundspeed Altitude Reporting Facility
EDT Latitude Longitude Course Direction KTS MPH feet Rate Location/Type
Fri 04:35:33 PM 40.8103 -77.8481 154° Southeast 275 316 2,800  Level New York Center
Fri 04:36:31 PM 40.7742 -77.8250 167° South 263 303 4,400 1,664 Climbing New York Center
Fri 04:37:32 PM 40.7353 -77.8128 164° South 164 189 6,100 1,636 Climbing New York Center
Fri 04:38:32 PM 40.6964 -77.7978 148° Southeast 152 175 7,700 1,587 Climbing New York Center
Fri 04:39:33 PM 40.6586 -77.7667 153° Southeast 152 175 9,300 1,613 Climbing New York Center
Fri 04:40:31 PM 40.6206 -77.7408 149° Southeast 157 181 10,900 1,525 Climbing New York Center
Fri 04:41:31 PM 40.5769 -77.7064 150° Southeast 162 186 12,300 1,339 Climbing New York Center
Fri 04:42:32 PM 40.5350 -77.6747 151° Southeast 172 198 13,600 1,438 Climbing New York Center
Fri 04:43:32 PM 40.4828 -77.6369 146° Southeast 189 217 15,200 1,488 Climbing New York Center
Fri 04:44:33 PM 40.4414 -77.6000 155° Southeast 196 226 16,600 1,339 Climbing New York Center
Fri 04:45:33 PM 40.3869 -77.5672 149° Southeast 196 226 17,900 1,160 Climbing New York Center
Fri 04:46:32 PM 40.3431 -77.5331 145° Southeast 196 226 18,900 1,200 Climbing New York Center
Fri 04:47:33 PM 40.2894 -77.4842 153° Southeast 201 231 20,300 1,289 Climbing New York Center
Fri 04:48:33 PM 40.2372 -77.4494 149° Southeast 208 239 21,500 1,210 Climbing New York Center
Fri 04:49:32 PM 40.1853 -77.4089 149° Southeast 213 245 22,700 1,160 Climbing New York Center
Fri 04:50:32 PM 40.1333 -77.3686 155° Southeast 213 245 23,800 992 Climbing New York Center
Fri 04:51:33 PM 40.0869 -77.3400 152° Southeast 213 245 24,700 595 Climbing New York Center
Fri 04:52:33 PM 40.0286 -77.2992 151° Southeast 218 251 25,000 153 Climbing New York Center
Fri 04:53:31 PM 39.9625 -77.2522 149° Southeast 246 283 25,000  Level New York Center
Fri 04:54:33 PM 39.8967 -77.2003 150° Southeast 268 308 25,000  Level New York Center
Fri 04:55:33 PM 39.8244 -77.1450 150° Southeast 282 325 25,000  Level New York Center
Fri 04:56:35 PM 39.7481 -77.0867 151° Southeast 286 329 25,000 -50 Level Washington Center
Fri 04:57:33 PM 39.6800 -77.0367 153° Southeast 299 344 24,900 -407 Descending Washington Center
Fri 04:58:33 PM 39.6056 -76.9867 149° Southeast 299 344 24,200 -645 Descending Washington Center
Fri 04:59:34 PM 39.5311 -76.9289 150° Southeast 304 350 23,600 -590 Descending Washington Center
Fri 05:00:35 PM 39.4547 -76.8708 152° Southeast 304 350 23,000 -298 Descending Washington Center
Fri 05:01:35 PM 39.3803 -76.8186 159° South 309 356 23,000 -254 Level Washington Center
Fri 05:02:33 PM 39.3036 -76.7797 178° South 303 349 22,500 -706 Descending Washington Center
Fri 05:03:34 PM 39.2181 -76.7758 179° South 298 343 21,600 -885 Descending Washington Center
Fri 05:04:35 PM 39.1306 -76.7742 177° South 311 358 20,700 -793 Descending Washington Center
Fri 05:05:35 PM 39.0453 -76.7675 178° South 311 358 20,000 -356 Descending Washington Center
Fri 05:06:33 PM 38.9639 -76.7636 176° South 306 352 20,000  Level Washington Center
Fri 05:07:35 PM 38.8828 -76.7569 176° South 301 346 20,000  Level Washington Center
Fri 05:08:35 PM 38.8036 -76.7503 179° South 289 333 20,000  Level Washington Center
Fri 05:09:33 PM 38.7347 -76.7494 174° South 289 333 20,000  Level Washington Center
Fri 05:10:33 PM 38.6411 -76.7372 175° South 289 333 20,000 -298 Level Washington Center
Fri 05:11:34 PM 38.5639 -76.7281 175° South 289 333 19,400 -689 Descending Washington Center
Fri 05:12:35 PM 38.4808 -76.7189 174° South 289 333 18,600 -857 Descending Washington Center
Fri 05:13:33 PM 38.3975 -76.7069 172° South 295 339 17,700 -915 Descending Washington Center
Fri 05:14:33 PM 38.3119 -76.6925 174° South 300 345 16,800 -934 Descending Washington Center
Fri 05:15:35 PM 38.2286 -76.6808 172° South 305 351 15,800 -934 Descending Washington Center
Fri 05:16:35 PM 38.1475 -76.6664 176° South 305 351 14,900 -864 Descending Washington Center
Fri 05:17:33 PM 38.0725 -76.6600 183° South 299 344 14,100 -807 Descending Washington Center
Fri 05:18:34 PM 37.9975 -76.6642 186° South 280 322 13,300 -787 Descending Washington Center
Fri 05:19:35 PM 37.9264 -76.6736 181° South 273 314 12,500 -744 Descending Washington Center
Fri 05:20:35 PM 37.8533 -76.6753 138° Southeast 268 308 11,800 -678 Descending Washington Center
Fri 05:21:30 PM 37.7978 -76.6114 133° Southeast 284 327 11,200 -735 Descending Washington Center
Fri 05:22:13 PM 37.7625 -76.5636 135° Southeast 287 330 10,600 -692 Descending Washington Center
Fri 05:23:14 PM 37.7069 -76.4922 132° Southeast 289 333 10,000 -298 Descending Washington Center
Fri 05:24:14 PM 37.6511 -76.4153 133° Southeast 278 320 10,000 -496 Level Washington Center
Fri 05:25:15 PM 37.5994 -76.3442 137° Southeast 276 318 9,000 -1,091 Descending Washington Center
Fri 05:26:15 PM 37.5394 -76.2728 133° Southeast 297 342 7,800 -1,122 Descending Washington Center
Fri 05:27:18 PM 37.4856 -76.1989 136° Southeast 290 334 6,700 -1,073 Descending Washington Center
Fri 05:28:18 PM 37.4253 -76.1253 137° Southeast 283 326 5,600 -823 Descending Washington Center
Fri 05:29:22 PM 37.3650 -76.0544 133° Southeast 264 304 5,000 -286 Descending Washington Center
Fri 05:30:24 PM 37.3175 -75.9914 158° South 250 288 5,000 -49 Level Washington Center
Fri 05:31:24 PM 37.2592 -75.9625 190° South 224 258 4,900  Descending Washington Center
Fri 05:32:31 PM 37.2028 -75.9753 184° South 192 221 5,000 -469 Climbing Washington Center
Fri 05:33:32 PM 37.1442 -75.9800 201° Southwest 194 223 3,900 -984 Descending Washington Center
Fri 05:34:33 PM 37.0961 -76.0033 221° Southwest 185 213 3,000 -470 Descending Washington Center
Fri 05:35:27 PM 37.0606 -76.0422 221° Southwest 189 217 3,000  Level Washington Center

Login

Don't have an account? Register now (free) for customized features, flight alerts, and more!